Time;durP1;ratioP1;P1;durP2;ratioP2;P2;SDS_P1;SDS_P2;PMS_P1;PMS_P2;Temp;Humidity;BMP_temperature;BMP_pressure;BME280_temperature;BME280_humidity;BME280_pressure;Samples;Min_cycle;Max_cycle;Signal;HPM_P1;HPM_P2
2021/03/20 00:01:02;;;;;;;;;;;-1.60;99.90;;;-2.80;87.65;96138.47;10247844;29;2108;-84
2021/03/20 00:06:07;;;;;;;;;;;-1.60;99.90;;;-2.86;87.65;96140.03;10242010;28;2287;-85
2021/03/20 00:11:16;;;;;;;;;;;-1.60;99.90;;;-2.88;87.47;96144.66;10268230;28;1990;-85
2021/03/20 00:16:18;;;;;;;;;;;-0.70;99.90;;;-2.82;87.24;96146.56;10247138;29;2373;-83
2021/03/20 00:21:21;;;;;;;;;;;-1.80;99.90;;;-2.89;87.09;96156.16;10263277;29;1933;-84
2021/03/20 00:26:23;;;;;;;;;;;-1.70;99.90;;;-2.96;86.50;96157.06;10270093;28;2002;-84
2021/03/20 00:31:25;;;;;;;;;;;-1.80;99.90;;;-3.07;87.18;96153.88;10238232;29;1911;-85
2021/03/20 00:36:27;;;;;;;;;;;-0.10;99.90;;;-3.16;87.38;96157.59;10249179;29;2387;-86
2021/03/20 00:41:37;;;;;;;;;;;-1.90;99.90;;;-3.10;88.13;96158.69;10258895;29;2309;-84
2021/03/20 00:46:39;;;;;;;;;;;-0.90;99.90;;;-3.22;88.46;96162.75;10264428;28;2234;-84
2021/03/20 00:51:41;;;;;;;;;;;-1.80;99.90;;;-3.16;88.11;96162.03;10272467;29;2287;-84
2021/03/20 00:56:44;;;;;;;;;;;-0.20;99.90;;;-3.26;88.05;96163.09;10242946;29;1891;-85
2021/03/20 01:01:46;;;;;;;;;;;-2.00;99.90;;;-3.30;87.48;96167.09;10226689;29;2334;-84
2021/03/20 01:06:48;;;;;;;;;;;-2.00;99.90;;;-3.33;87.72;96177.13;10245493;29;2114;-86
2021/03/20 01:11:59;;;;;;;;;;;-2.10;99.90;;;-3.37;88.88;96158.28;10262042;29;1986;-85
2021/03/20 01:17:01;;;;;;;;;;;-1.40;99.90;;;-3.44;88.39;96164.41;10265393;29;2240;-84
2021/03/20 01:22:04;;;;;;;;;;;-0.70;99.90;;;-3.51;88.66;96164.28;10256330;29;2370;-82
2021/03/20 01:27:06;;;;;;;;;;;-2.40;99.90;;;-3.58;88.32;96164.16;10242812;29;2471;-85
2021/03/20 01:32:08;;;;;;;;;;;-2.10;99.90;;;-3.58;89.06;96163.34;10248918;29;1911;-84
2021/03/20 01:37:10;;;;;;;;;;;-2.40;99.90;;;-3.61;89.19;96166.34;10270497;28;2219;-84
2021/03/20 01:42:23;;;;;;;;;;;-1.40;99.90;;;-3.57;89.29;96165.00;10260856;29;2266;-84
2021/03/20 01:47:25;;;;;;;;;;;-2.40;99.90;;;-3.68;89.11;96173.31;10251901;29;1910;-83
2021/03/20 01:52:27;;;;;;;;;;;-2.50;99.90;;;-3.62;89.38;96162.09;10241235;29;2084;-86
2021/03/20 01:57:29;;;;;;;;;;;-1.90;99.90;;;-3.61;89.43;96155.84;10261150;28;1812;-85
2021/03/20 02:02:31;;;;;;;;;;;-2.50;99.90;;;-3.55;89.10;96163.84;10223236;29;2322;-85
2021/03/20 02:07:33;;;;;;;;;;;-1.30;99.90;;;-3.40;88.61;96163.88;10242285;29;1753;-84
2021/03/20 02:12:45;;;;;;;;;;;-2.30;99.90;;;-3.29;87.77;96162.63;10248343;29;2227;-84
2021/03/20 02:17:47;;;;;;;;;;;-2.20;99.90;;;-3.24;87.54;96156.81;10238056;29;2047;-85
2021/03/20 02:22:50;;;;;;;;;;;-2.10;99.90;;;-3.17;87.57;96173.56;10235696;29;2386;-81
2021/03/20 02:27:53;;;;;;;;;;;-2.00;99.90;;;-3.12;87.44;96164.09;10248604;28;1619;-85
2021/03/20 02:32:55;;;;;;;;;;;-2.10;99.90;;;-3.12;87.24;96171.19;10245119;28;2118;-85
2021/03/20 02:37:58;;;;;;;;;;;-1.80;99.90;;;-3.05;87.01;96165.06;10235941;29;2258;-84
2021/03/20 02:43:08;;;;;;;;;;;-1.50;99.90;;;-3.02;87.31;96169.94;10234948;29;2275;-86
2021/03/20 02:48:10;;;;;;;;;;;-1.90;99.90;;;-2.94;87.10;96168.22;10249089;29;2392;-85
2021/03/20 02:53:12;;;;;;;;;;;-1.80;99.90;;;-2.97;86.91;96163.34;10254902;28;2321;-85
2021/03/20 02:58:14;;;;;;;;;;;-0.40;99.90;;;-2.86;86.92;96176.88;10242098;29;2283;-85
2021/03/20 03:03:17;;;;;;;;;;;-1.80;99.90;;;-2.84;85.60;96172.22;10241570;29;2070;-86
2021/03/20 03:08:19;;;;;;;;;;;-1.70;99.90;;;-3.07;86.77;96172.28;10259381;29;2345;-84
2021/03/20 03:13:32;;;;;;;;;;;-1.80;99.90;;;-3.01;86.85;96165.50;10263517;29;1964;-85
2021/03/20 03:18:33;;;;;;;;;;;-1.90;99.90;;;-3.02;86.12;96169.94;10247621;29;1687;-86
2021/03/20 03:23:36;;;;;;;;;;;-0.40;99.90;;;-2.90;86.61;96175.59;10257378;29;1986;-84
2021/03/20 03:28:38;;;;;;;;;;;-1.80;99.90;;;-2.94;85.49;96181.38;10237873;29;1795;-86
2021/03/20 03:33:40;;;;;;;;;;;-1.90;99.90;;;-3.00;86.14;96177.63;10285113;28;1887;-85
2021/03/20 03:38:42;;;;;;;;;;;0.10;99.90;;;-2.97;87.08;96177.31;10264380;29;1737;-84
2021/03/20 03:43:54;;;;;;;;;;;-2.00;99.90;;;-2.94;87.08;96176.13;10235120;29;2305;-84
2021/03/20 03:48:56;;;;;;;;;;;-1.80;99.90;;;-2.83;87.71;96183.56;10240380;29;1314;-84
2021/03/20 03:53:58;;;;;;;;;;;-1.80;99.90;;;-2.90;87.06;96175.59;10254300;29;2520;-85
2021/03/20 03:59:00;;;;;;;;;;;-1.80;99.90;;;-2.90;87.68;96188.75;10228519;29;2309;-85
2021/03/20 04:04:02;;;;;;;;;;;-0.80;99.90;;;-2.85;88.32;96191.66;10231764;28;1519;-82
2021/03/20 04:09:04;;;;;;;;;;;-1.80;99.90;;;-2.75;88.24;96184.28;10236083;29;2286;-83
2021/03/20 04:14:16;;;;;;;;;;;-0.10;99.90;;;-2.86;88.33;96189.19;10225414;29;2408;-83
2021/03/20 04:19:18;;;;;;;;;;;0.00;99.90;;;-3.07;88.85;96198.59;10236789;29;2308;-83
2021/03/20 04:24:20;;;;;;;;;;;-0.50;99.90;;;-3.09;88.79;96195.31;10236226;28;1936;-83
2021/03/20 04:29:22;;;;;;;;;;;-2.00;99.90;;;-2.91;89.86;96189.75;10257659;29;1687;-85
2021/03/20 04:34:24;;;;;;;;;;;-1.90;99.90;;;-2.78;90.09;96197.81;10245819;29;2391;-85
2021/03/20 04:39:26;;;;;;;;;;;-1.80;99.90;;;-2.95;89.11;96191.09;10214663;29;2111;-85
2021/03/20 04:44:46;;;;;;;;;;;0.10;99.90;;;-2.94;89.61;96192.72;10247272;28;1762;-85
2021/03/20 04:49:48;;;;;;;;;;;-1.80;99.90;;;-3.03;89.62;96199.88;10249584;28;2375;-83
2021/03/20 04:54:50;;;;;;;;;;;-1.90;99.90;;;-2.92;89.13;96216.22;10259998;29;2309;-84
2021/03/20 04:59:52;;;;;;;;;;;-1.80;99.90;;;-2.93;87.77;96215.38;10232607;29;2241;-83
2021/03/20 05:04:54;;;;;;;;;;;-1.90;99.90;;;-3.11;87.79;96212.28;10221035;28;2163;-84
2021/03/20 05:09:56;;;;;;;;;;;-1.90;99.90;;;-3.08;87.43;96217.19;10243995;29;2038;-84
2021/03/20 05:15:08;;;;;;;;;;;-2.10;99.90;;;-3.15;87.86;96216.25;10238806;28;2293;-84
2021/03/20 05:20:14;;;;;;;;;;;-2.10;99.90;;;-3.15;87.29;96224.16;10236922;29;2305;-84
2021/03/20 05:25:16;;;;;;;;;;;-0.30;99.90;;;-3.11;88.68;96228.06;10252316;28;1956;-85
2021/03/20 05:30:18;;;;;;;;;;;-2.10;99.90;;;-3.27;89.00;96223.75;10240695;29;1361;-85
2021/03/20 05:35:20;;;;;;;;;;;-2.10;99.90;;;-3.19;89.62;96226.28;10247200;29;2168;-84
2021/03/20 05:40:22;;;;;;;;;;;-2.10;99.90;;;-2.98;89.42;96233.53;10247459;28;2318;-83
2021/03/20 05:45:33;;;;;;;;;;;-2.00;99.90;;;-3.17;86.97;96228.78;10234970;29;2380;-84
2021/03/20 05:50:36;;;;;;;;;;;-1.10;99.90;;;-3.31;86.26;96233.81;10238620;29;2187;-83
2021/03/20 05:55:38;;;;;;;;;;;-2.10;99.90;;;-3.30;85.46;96256.47;10221205;29;1975;-85
2021/03/20 06:00:41;;;;;;;;;;;-0.60;99.90;;;-3.53;83.70;96255.63;10226870;29;2339;-81
2021/03/20 06:05:43;;;;;;;;;;;-2.40;99.90;;;-3.47;82.84;96265.44;10225765;29;2589;-84
2021/03/20 06:10:45;;;;;;;;;;;-2.40;99.90;;;-3.56;81.77;96264.69;10276813;28;2348;-83
2021/03/20 06:15:54;;;;;;;;;;;-2.40;99.90;;;-3.45;81.39;96267.91;10261672;29;2286;-85
2021/03/20 06:21:15;;;;;;;;;;;-1.80;99.90;;;-3.29;81.06;96273.88;10252251;29;2031;-84
2021/03/20 06:26:17;;;;;;;;;;;-1.00;99.90;;;-3.23;80.52;96274.16;10277450;28;2368;-86
2021/03/20 06:31:19;;;;;;;;;;;-0.90;99.90;;;-3.29;79.12;96276.50;10268738;28;2295;-82
2021/03/20 06:36:21;;;;;;;;;;;-2.10;99.90;;;-2.52;79.03;96283.44;10238120;29;2241;-83
2021/03/20 06:41:24;;;;;;;;;;;-1.80;99.90;;;-2.55;74.99;96296.94;10237828;29;2341;-84
2021/03/20 06:46:26;;;;;;;;;;;-1.40;99.90;;;-2.64;77.04;96305.91;10218166;29;2227;-85
2021/03/20 06:51:29;;;;;;;;;;;-1.60;99.90;;;-2.72;76.04;96307.63;10216382;29;2426;-83
2021/03/20 06:56:30;;;;;;;;;;;-0.90;99.90;;;-2.89;76.87;96300.84;10226082;29;2368;-83
2021/03/20 07:01:33;;;;;;;;;;;-1.80;99.90;;;-2.90;77.35;96312.38;10218333;29;2366;-83
2021/03/20 07:06:35;;;;;;;;;;;-0.10;99.90;;;-3.04;76.89;96315.78;10234279;29;1270;-83
2021/03/20 07:11:37;;;;;;;;;;;-1.80;99.90;;;-2.84;76.69;96313.50;10254772;28;2326;-82
2021/03/20 07:16:49;;;;;;;;;;;-1.80;99.90;;;-2.59;75.13;96316.75;10232139;29;2409;-84
2021/03/20 07:21:51;;;;;;;;;;;-0.40;99.90;;;-2.15;73.44;96324.72;10227199;29;2321;-85
2021/03/20 07:26:53;;;;;;;;;;;-1.20;99.90;;;-2.58;74.71;96328.91;10238192;29;1731;-82
2021/03/20 07:31:55;;;;;;;;;;;0.80;99.90;;;-2.44;75.75;96336.00;10240969;29;2102;-84
2021/03/20 07:36:59;;;;;;;;;;;-1.40;99.90;;;-2.21;74.05;96336.78;10245948;29;1740;-82
2021/03/20 07:42:02;;;;;;;;;;;-1.20;99.90;;;-1.97;73.34;96334.91;10222341;29;2303;-82
2021/03/20 07:47:11;;;;;;;;;;;-0.80;99.90;;;-2.01;72.33;96346.78;10251030;29;2611;-84
2021/03/20 07:52:14;;;;;;;;;;;0.20;99.90;;;-2.26;74.23;96354.09;10273461;28;2091;-87
2021/03/20 07:57:17;;;;;;;;;;;-1.00;99.90;;;-2.38;73.73;96356.34;10258391;28;1363;-84
2021/03/20 08:02:20;;;;;;;;;;;-1.20;99.90;;;-2.60;73.43;96362.47;10224617;29;2372;-85
2021/03/20 08:07:22;;;;;;;;;;;-1.40;99.90;;;-2.46;73.65;96374.88;10238634;29;1916;-86
2021/03/20 08:12:25;;;;;;;;;;;-1.50;99.90;;;-3.00;73.18;96372.28;10266106;29;2469;-86
2021/03/20 08:17:41;;;;;;;;;;;-1.80;99.90;;;-2.81;72.40;96382.34;10231350;29;2175;-81
2021/03/20 08:23:05;;;;;;;;;;;-1.70;99.90;;;-2.98;70.52;96374.75;10242029;28;2183;-82
2021/03/20 08:28:28;;;;;;;;;;;-1.90;99.90;;;-2.41;69.36;96388.31;10224239;29;2373;-84
2021/03/20 08:33:41;;;;;;;;;;;-1.50;99.90;;;-2.27;69.85;96384.91;10222177;29;2278;-85
2021/03/20 08:38:47;;;;;;;;;;;-1.10;99.90;;;-2.01;69.66;96395.03;10224610;29;2293;-86
2021/03/20 08:43:53;;;;;;;;;;;-1.10;99.90;;;-1.65;68.21;96387.25;10226476;29;2884;-86
2021/03/20 08:48:57;;;;;;;;;;;0.30;99.90;;;-1.53;69.47;96389.38;10241390;29;2423;-83
2021/03/20 08:53:59;;;;;;;;;;;1.20;99.90;;;-0.82;64.61;96388.63;10255990;29;2329;-85
2021/03/20 08:59:03;;;;;;;;;;;-0.10;99.90;;;-1.20;68.29;96397.75;10270903;29;1534;-84
2021/03/20 09:04:10;;;;;;;;;;;1.50;99.90;;;-1.19;67.80;96397.56;10243052;29;2342;-81
2021/03/20 09:09:12;;;;;;;;;;;-0.10;99.90;;;-1.10;67.49;96409.63;10245252;29;2306;-83
2021/03/20 09:14:17;;;;;;;;;;;-0.20;99.90;;;-1.27;66.71;96408.22;10248059;29;2258;-85
2021/03/20 09:19:19;;;;;;;;;;;-0.20;99.90;;;-0.83;65.30;96394.06;10231953;29;2298;-84
2021/03/20 09:24:22;;;;;;;;;;;1.30;99.90;;;-0.51;64.97;96400.69;10226703;29;1598;-84
2021/03/20 09:29:24;;;;;;;;;;;0.60;99.90;;;-1.17;64.51;96406.09;10240016;29;1344;-83
2021/03/20 09:34:27;;;;;;;;;;;0.10;99.90;;;-1.41;67.55;96406.38;10241547;28;2275;-84
2021/03/20 09:39:30;;;;;;;;;;;-0.40;99.90;;;-1.73;65.94;96416.28;10244736;29;2411;-83
2021/03/20 09:44:37;;;;;;;;;;;-0.60;99.90;;;-1.98;65.19;96402.56;10261175;29;2317;-83
2021/03/20 09:49:42;;;;;;;;;;;0.60;99.90;;;-1.66;63.96;96411.13;10244039;29;2330;-82
2021/03/20 09:55:01;;;;;;;;;;;-0.80;99.90;;;-0.83;61.84;96410.75;10249083;29;2342;-84
2021/03/20 10:00:09;;;;;;;;;;;0.60;99.90;;;0.45;58.64;96401.88;10259806;29;1840;-83
2021/03/20 10:05:39;;;;;;;;;;;0.70;99.90;;;-0.61;64.79;96408.13;10246821;29;2365;-84
2021/03/20 10:10:42;;;;;;;;;;;0.70;99.90;;;-0.97;64.40;96408.97;10257304;29;2313;-83
2021/03/20 10:15:45;;;;;;;;;;;0.10;99.90;;;-1.10;62.79;96414.09;10240512;29;1999;-85
2021/03/20 10:20:49;;;;;;;;;;;2.00;99.90;;;-0.77;60.41;96406.53;10253548;29;2466;-85
2021/03/20 10:25:51;;;;;;;;;;;0.00;99.90;;;-0.58;63.51;96408.56;10240985;29;2289;-84
2021/03/20 10:30:54;;;;;;;;;;;0.20;99.90;;;-1.43;67.15;96411.03;10245973;29;2325;-85
2021/03/20 10:35:56;;;;;;;;;;;0.00;99.90;;;-1.60;70.81;96409.56;10241982;29;2383;-84
2021/03/20 10:40:58;;;;;;;;;;;1.50;99.90;;;-1.55;72.61;96415.13;10241772;29;2395;-83
2021/03/20 10:46:00;;;;;;;;;;;-0.50;99.90;;;-1.56;71.92;96411.69;10241917;29;2292;-83
2021/03/20 10:51:02;;;;;;;;;;;-0.50;99.90;;;-1.44;70.60;96414.69;10254836;28;2207;-84
2021/03/20 10:56:04;;;;;;;;;;;-0.40;99.90;;;-1.40;70.16;96419.41;10238669;29;2372;-83
2021/03/20 11:01:06;;;;;;;;;;;0.90;99.90;;;-1.23;65.93;96420.00;10244173;29;2008;-84
2021/03/20 11:06:08;;;;;;;;;;;-0.10;99.90;;;-0.92;64.23;96405.78;10235127;29;2382;-84
2021/03/20 11:11:10;;;;;;;;;;;0.00;99.90;;;-0.35;59.47;96403.09;10259287;29;2487;-81
2021/03/20 11:16:13;;;;;;;;;;;0.50;99.90;;;-0.39;60.49;96411.56;10241730;29;2531;-84
2021/03/20 11:21:15;;;;;;;;;;;0.60;99.90;;;-0.40;59.01;96412.59;10240269;29;2279;-87
2021/03/20 11:26:17;;;;;;;;;;;2.00;99.90;;;-0.49;61.71;96422.47;10241796;29;2317;-84
2021/03/20 11:31:19;;;;;;;;;;;2.40;99.90;;;-0.94;63.61;96436.81;10246979;29;2250;-84
2021/03/20 11:36:22;;;;;;;;;;;0.20;99.90;;;-1.16;64.39;96426.19;10234471;29;2334;-83
2021/03/20 11:41:24;;;;;;;;;;;0.00;99.90;;;-0.68;64.08;96418.63;10232608;29;2907;-85
2021/03/20 11:46:26;;;;;;;;;;;0.60;99.90;;;-0.79;61.85;96424.38;10242942;29;2353;-84
2021/03/20 11:51:28;;;;;;;;;;;0.20;99.90;;;-0.33;59.69;96429.31;10237368;28;2239;-83
2021/03/20 11:56:33;;;;;;;;;;;0.40;99.90;;;0.15;57.81;96405.72;10256929;29;1895;-83
2021/03/20 12:01:35;;;;;;;;;;;0.90;99.20;;;0.34;56.75;96407.69;10261747;28;2059;-84
2021/03/20 12:06:38;;;;;;;;;;;3.20;98.10;;;0.37;55.24;96399.34;10254301;29;1721;-81
2021/03/20 12:11:40;;;;;;;;;;;1.30;95.20;;;-0.24;55.62;96403.59;10246266;29;2088;-85
2021/03/20 12:16:43;;;;;;;;;;;1.00;92.10;;;-0.05;56.94;96400.31;10228173;29;2375;-86
2021/03/20 12:21:47;;;;;;;;;;;0.80;92.90;;;0.34;55.16;96397.09;10245714;29;2435;-85
2021/03/20 12:26:51;;;;;;;;;;;1.00;93.30;;;0.24;58.58;96393.97;10250234;29;1953;-84
2021/03/20 12:31:57;;;;;;;;;;;1.10;94.80;;;0.12;55.19;96398.16;10240966;29;2455;-86
2021/03/20 12:37:02;;;;;;;;;;;1.10;92.10;;;-0.24;56.92;96399.13;10252809;28;2354;-85
2021/03/20 12:42:05;;;;;;;;;;;2.50;92.20;;;0.45;55.81;96393.13;10253201;29;2384;-85
2021/03/20 12:47:07;;;;;;;;;;;2.30;92.80;;;0.86;54.67;96389.63;10240993;29;2346;-88
2021/03/20 12:52:09;;;;;;;;;;;3.40;92.50;;;0.88;51.76;96384.94;10255083;28;2075;-86
2021/03/20 12:57:13;;;;;;;;;;;1.60;88.60;;;0.54;49.38;96384.00;10251929;29;2383;-84
2021/03/20 13:02:15;;;;;;;;;;;1.50;82.30;;;-0.38;55.55;96386.78;10236576;29;2499;-85
2021/03/20 13:07:18;;;;;;;;;;;1.10;85.50;;;-0.82;61.75;96407.13;10242686;29;2358;-84
2021/03/20 13:12:20;;;;;;;;;;;0.50;92.40;;;-1.40;66.02;96410.66;10243041;28;2087;-85
2021/03/20 13:17:22;;;;;;;;;;;0.00;97.90;;;-1.17;65.72;96411.38;10246738;29;2344;-84
2021/03/20 13:22:25;;;;;;;;;;;-0.20;99.90;;;-1.51;66.52;96405.88;10275901;29;2282;-82
2021/03/20 13:27:27;;;;;;;;;;;0.20;99.90;;;-1.13;66.79;96412.66;10248739;29;2246;-83
2021/03/20 13:32:29;;;;;;;;;;;0.90;99.90;;;-0.42;64.09;96407.50;10262910;28;2431;-86
2021/03/20 13:37:32;;;;;;;;;;;0.30;99.90;;;0.03;60.77;96405.44;10261202;29;2349;-81
2021/03/20 13:42:35;;;;;;;;;;;0.60;99.90;;;-0.07;60.67;96400.47;10283161;28;2306;-84
2021/03/20 13:47:37;;;;;;;;;;;2.80;98.90;;;0.30;56.68;96402.97;10263107;28;2128;-82
2021/03/20 13:52:39;;;;;;;;;;;1.10;94.50;;;0.38;58.23;96398.38;10253449;28;2317;-85
2021/03/20 13:57:41;;;;;;;;;;;3.20;94.60;;;0.13;56.34;96399.81;10258350;29;1573;-85
2021/03/20 14:02:43;;;;;;;;;;;1.30;91.60;;;0.11;56.50;96385.97;10256939;29;2060;-84
2021/03/20 14:07:46;;;;;;;;;;;1.20;91.10;;;0.62;56.08;96388.31;10263617;29;2092;-86
2021/03/20 14:37:44;;;;;;;;;;;1.20;87.80;;;1.00;48.35;96394.78;10230789;28;1799;-88
2021/03/20 14:48:29;;;;;;;;;;;1.70;81.90;;;0.58;51.69;96385.25;10185291;29;1538;-85
2021/03/20 15:11:58;;;;;;;;;;;3.50;83.40;;;0.89;48.47;96378.63;10253567;28;1288;-84
2021/03/20 15:17:00;;;;;;;;;;;1.80;79.30;;;0.44;48.89;96381.69;10316459;28;1904;-81
2021/03/20 15:22:03;;;;;;;;;;;1.60;78.10;;;0.20;47.81;96384.81;10330978;28;1619;-84
2021/03/20 15:27:05;;;;;;;;;;;2.70;78.00;;;-0.36;49.46;96390.09;10322836;28;1565;-84
2021/03/20 15:32:08;;;;;;;;;;;2.90;78.10;;;-0.61;49.74;96381.72;10336457;28;1264;-85
2021/03/20 15:37:11;;;;;;;;;;;0.60;77.90;;;-0.58;53.41;96381.34;10317363;28;1918;-81
2021/03/20 15:42:16;;;;;;;;;;;0.50;81.80;;;-0.81;49.95;96384.16;10316085;28;1902;-79
2021/03/20 15:47:18;;;;;;;;;;;1.30;79.70;;;-0.89;50.43;96374.56;10312823;28;1565;-83
2021/03/20 15:52:20;;;;;;;;;;;2.20;79.30;;;-0.77;50.65;96377.50;10314025;28;1588;-84
2021/03/20 15:57:22;;;;;;;;;;;0.30;79.30;;;-0.65;50.31;96372.53;10323992;28;1910;-84
2021/03/20 16:02:24;;;;;;;;;;;0.90;80.20;;;-0.73;48.94;96368.19;10291383;28;1324;-82
2021/03/20 16:07:27;;;;;;;;;;;0.40;78.00;;;-0.75;49.42;96359.66;10299458;28;1683;-83
2021/03/20 16:12:28;;;;;;;;;;;1.80;78.50;;;-0.78;46.28;96373.22;10310263;28;1955;-82
2021/03/20 16:17:30;;;;;;;;;;;0.30;74.40;;;-1.06;47.10;96367.88;10311719;28;1348;-82
2021/03/20 16:22:32;;;;;;;;;;;0.10;74.10;;;-1.21;47.91;96375.81;10318776;28;1506;-82
2021/03/20 16:27:34;;;;;;;;;;;1.90;75.60;;;-1.30;49.37;96381.38;10334147;28;2173;-83
2021/03/20 16:32:36;;;;;;;;;;;-0.10;76.10;;;-1.41;50.21;96380.00;10345718;28;1887;-86
2021/03/20 16:37:38;;;;;;;;;;;-0.20;76.50;;;-1.49;48.53;96385.41;10354729;28;2096;-85
2021/03/20 16:42:40;;;;;;;;;;;1.60;77.20;;;-1.68;49.74;96374.41;10322015;28;2400;-83
2021/03/20 16:47:42;;;;;;;;;;;-0.40;76.90;;;-1.80;51.99;96385.59;10318406;28;1647;-85
2021/03/20 16:52:45;;;;;;;;;;;-0.50;77.90;;;-1.85;51.87;96385.31;10353678;28;2029;-84
2021/03/20 16:57:47;;;;;;;;;;;-0.70;77.90;;;-1.96;53.59;96392.66;10313291;28;2485;-85
2021/03/20 17:02:49;;;;;;;;;;;-0.70;79.80;;;-1.95;53.46;96394.31;10303858;28;2236;-84
2021/03/20 17:07:51;;;;;;;;;;;-0.70;79.80;;;-2.04;54.29;96384.81;10309086;28;2253;-85
2021/03/20 17:12:53;;;;;;;;;;;-0.80;80.50;;;-2.08;55.52;96382.75;10319069;28;2312;-86
2021/03/20 17:17:55;;;;;;;;;;;-0.90;81.40;;;-2.17;54.33;96382.81;10304031;28;2268;-83
2021/03/20 17:22:58;;;;;;;;;;;-0.90;81.40;;;-2.16;54.02;96386.28;10315710;28;1730;-87
2021/03/20 17:28:08;;;;;;;;;;;-0.90;81.30;;;-2.19;52.81;96387.44;10312749;28;2591;-81
2021/03/20 17:33:10;;;;;;;;;;;-1.00;80.50;;;-2.22;54.85;96387.81;10327177;28;2445;-84
2021/03/20 17:38:12;;;;;;;;;;;1.00;82.20;;;-2.18;54.63;96396.16;10304930;28;2269;-83
2021/03/20 17:43:14;;;;;;;;;;;-1.00;81.20;;;-2.17;52.56;96393.34;10285367;28;2737;-84
2021/03/20 17:48:15;;;;;;;;;;;0.70;80.70;;;-2.25;53.93;96388.16;10302380;28;2277;-86
2021/03/20 17:53:18;;;;;;;;;;;-1.00;80.80;;;-2.31;54.44;96404.66;10292398;28;2297;-83
2021/03/20 17:58:19;;;;;;;;;;;0.20;81.50;;;-2.43;55.33;96400.81;10313096;28;2245;-86
2021/03/20 18:03:21;;;;;;;;;;;-1.10;81.90;;;-2.48;55.20;96403.19;10324014;28;2404;-84
2021/03/20 18:08:23;;;;;;;;;;;-1.20;81.90;;;-2.51;56.27;96400.88;10330044;28;2407;-84
2021/03/20 18:13:26;;;;;;;;;;;-1.20;82.70;;;-2.56;57.69;96406.69;10350056;28;2301;-85
2021/03/20 18:18:28;;;;;;;;;;;-0.60;83.90;;;-2.54;55.82;96409.97;10349215;28;2252;-82
2021/03/20 18:23:30;;;;;;;;;;;-1.30;82.80;;;-2.57;56.69;96402.41;10327433;28;2237;-82
2021/03/20 18:28:33;;;;;;;;;;;0.10;84.10;;;-2.56;56.66;96408.50;10309808;28;2318;-86
2021/03/20 18:33:35;;;;;;;;;;;-1.30;83.40;;;-2.64;58.45;96406.75;10286701;28;2278;-85
2021/03/20 18:38:37;;;;;;;;;;;-1.40;84.30;;;-2.63;58.33;96413.66;10320661;28;2286;-84
2021/03/20 18:43:39;;;;;;;;;;;-1.40;84.60;;;-2.69;59.17;96421.41;10307473;28;2477;-83
2021/03/20 18:48:41;;;;;;;;;;;-1.40;85.50;;;-2.82;60.09;96416.75;10309225;28;2181;-85
2021/03/20 18:53:43;;;;;;;;;;;0.40;86.90;;;-2.74;59.04;96425.38;10345211;28;2367;-83
2021/03/20 18:58:47;;;;;;;;;;;-1.40;86.10;;;-2.79;59.30;96422.47;10300376;28;2427;-81
2021/03/20 19:03:49;;;;;;;;;;;-1.50;86.20;;;-2.87;60.52;96419.06;10304501;28;2144;-81
2021/03/20 19:08:57;;;;;;;;;;;-1.60;86.80;;;-2.99;60.90;96423.91;10367096;28;2291;-86
2021/03/20 19:13:59;;;;;;;;;;;-1.60;87.10;;;-3.10;61.64;96411.97;10329209;28;2675;-87
2021/03/20 19:19:00;;;;;;;;;;;-1.80;87.50;;;-3.19;62.26;96414.81;10313602;28;2583;-85
2021/03/20 19:24:02;;;;;;;;;;;-1.90;88.20;;;-3.22;62.00;96394.94;10315978;28;2340;-86
2021/03/20 19:29:04;;;;;;;;;;;-1.90;88.50;;;-3.21;60.99;96404.47;10318768;28;2191;-87
2021/03/20 19:34:08;;;;;;;;;;;-1.90;88.30;;;-3.23;61.78;96403.00;10324212;28;2097;-87
2021/03/20 19:39:10;;;;;;;;;;;-1.90;88.60;;;-3.21;60.57;96401.03;10322150;28;2319;-86
2021/03/20 19:44:13;;;;;;;;;;;-1.60;88.40;;;-3.24;61.19;96406.59;10308564;28;2764;-88
2021/03/20 19:49:16;;;;;;;;;;;-2.00;88.00;;;-3.20;60.84;96406.09;10313461;28;2209;-89
2021/03/20 19:54:18;;;;;;;;;;;-2.00;88.20;;;-3.16;61.71;96414.47;10295357;28;2691;-86
2021/03/20 19:59:20;;;;;;;;;;;-1.80;88.40;;;-3.19;62.40;96410.38;10299129;28;2257;-87
2021/03/20 20:04:22;;;;;;;;;;;-1.90;89.50;;;-3.23;63.50;96414.34;10313181;28;2389;-85
2021/03/20 20:09:24;;;;;;;;;;;-1.60;90.60;;;-3.27;64.18;96403.34;10301804;28;2431;-87
2021/03/20 20:14:26;;;;;;;;;;;-1.10;91.60;;;-3.23;64.44;96400.38;10325657;28;2216;-85
2021/03/20 20:19:30;;;;;;;;;;;-0.50;92.60;;;-3.21;65.16;96395.75;10325146;28;2006;-88
2021/03/20 20:24:36;;;;;;;;;;;-2.00;92.40;;;-3.14;65.12;96407.22;10310615;28;1805;-87
2021/03/20 20:29:37;;;;;;;;;;;0.30;93.90;;;-3.03;65.20;96410.28;10324940;28;2344;-85
2021/03/20 20:34:40;;;;;;;;;;;-1.90;93.40;;;-3.06;65.53;96415.06;10328260;28;2426;-87
2021/03/20 20:39:42;;;;;;;;;;;-1.90;93.60;;;-3.07;66.33;96403.72;10306500;28;2502;-86
2021/03/20 20:44:44;;;;;;;;;;;-1.80;94.50;;;-3.07;66.24;96411.63;10321970;28;2030;-85
2021/03/20 20:49:46;;;;;;;;;;;-0.50;95.40;;;-3.01;67.24;96402.22;10335060;28;1807;-85
2021/03/20 20:54:48;;;;;;;;;;;-1.90;95.40;;;-2.97;66.83;96402.69;10328244;28;1960;-84
2021/03/20 20:59:52;;;;;;;;;;;-1.80;95.70;;;-3.01;66.56;96403.03;10323766;28;1662;-86
2021/03/20 21:04:54;;;;;;;;;;;-0.50;96.10;;;-2.97;67.45;96393.00;10339277;28;1777;-85
2021/03/20 21:09:56;;;;;;;;;;;-1.80;95.90;;;-2.98;67.33;96394.00;10328648;28;1780;-87
2021/03/20 21:14:58;;;;;;;;;;;-1.80;95.70;;;-3.02;67.29;96390.88;10336232;28;2434;-86
2021/03/20 21:20:02;;;;;;;;;;;-1.80;96.40;;;-3.07;68.66;96373.97;10323135;28;2555;-86
2021/03/20 21:25:04;;;;;;;;;;;-1.90;97.00;;;-3.00;69.06;96372.28;10302025;28;1818;-86
2021/03/20 21:30:07;;;;;;;;;;;-1.90;97.70;;;-2.78;68.68;96375.94;10346039;28;2025;-84
2021/03/20 21:35:09;;;;;;;;;;;-0.30;99.00;;;-2.64;67.44;96374.34;10332541;28;2180;-86
2021/03/20 21:40:11;;;;;;;;;;;-1.60;97.80;;;-2.50;66.61;96368.31;10341899;28;2632;-86
2021/03/20 21:45:13;;;;;;;;;;;-1.60;97.20;;;-2.40;66.27;96368.06;10313427;28;2085;-88
2021/03/20 21:50:15;;;;;;;;;;;0.10;97.90;;;-2.32;65.26;96368.81;10304935;28;2030;-88
2021/03/20 21:55:17;;;;;;;;;;;-1.30;96.50;;;-2.25;65.10;96377.63;10311914;28;2349;-88
2021/03/20 22:00:19;;;;;;;;;;;-1.00;96.00;;;-2.23;64.04;96380.06;10300546;28;2260;-85
2021/03/20 22:05:22;;;;;;;;;;;-1.20;95.30;;;-2.14;64.08;96375.56;10310340;28;2045;-86
2021/03/20 22:10:23;;;;;;;;;;;-0.80;95.10;;;-2.09;64.02;96367.94;10303819;28;2112;-86
2021/03/20 22:15:26;;;;;;;;;;;-1.10;94.70;;;-1.99;63.50;96371.13;10297576;28;2435;-88
2021/03/20 22:20:28;;;;;;;;;;;0.40;95.00;;;-1.92;63.86;96361.50;10320831;28;2152;-86
2021/03/20 22:25:30;;;;;;;;;;;-0.90;94.40;;;-1.99;63.81;96360.59;10299340;28;2033;-87
2021/03/20 22:30:32;;;;;;;;;;;1.10;95.40;;;-1.95;64.10;96359.22;10303719;28;2393;-87
2021/03/20 22:35:37;;;;;;;;;;;-0.90;94.40;;;-1.94;63.10;96360.88;10289571;28;2045;-86
2021/03/20 22:40:39;;;;;;;;;;;-0.90;94.10;;;-1.96;64.15;96354.97;10282423;28;2301;-86
2021/03/20 22:45:41;;;;;;;;;;;-0.90;94.60;;;-1.95;64.62;96361.88;10300172;28;1906;-86
2021/03/20 22:50:43;;;;;;;;;;;0.20;95.40;;;-1.90;63.78;96359.50;10304654;28;2028;-88
2021/03/20 22:55:45;;;;;;;;;;;-0.90;94.90;;;-1.92;64.25;96357.03;10299363;28;2167;-87
2021/03/20 23:00:48;;;;;;;;;;;0.80;95.50;;;-1.89;64.34;96345.34;10307087;28;2353;-87
2021/03/20 23:05:51;;;;;;;;;;;-0.90;94.60;;;-1.86;64.98;96344.97;10322780;28;2319;-88
2021/03/20 23:10:54;;;;;;;;;;;-0.90;95.10;;;-1.83;65.10;96349.88;10275179;28;2308;-88
2021/03/20 23:15:56;;;;;;;;;;;-0.60;95.50;;;-1.81;64.92;96355.78;10314390;28;1910;-85
2021/03/20 23:20:59;;;;;;;;;;;-0.80;95.30;;;-1.77;64.59;96348.34;10306656;28;2171;-83
2021/03/20 23:26:07;;;;;;;;;;;0.50;96.50;;;-1.77;64.34;96356.25;10306386;28;2398;-84
2021/03/20 23:31:19;;;;;;;;;;;0.50;95.80;;;-1.73;65.07;96347.75;10293706;28;1673;-88
2021/03/20 23:36:27;;;;;;;;;;;1.10;96.50;;;-1.69;64.64;96341.16;10317909;28;2067;-88
2021/03/20 23:41:53;;;;;;;;;;;;;;;;;;;;;
2021/03/20 23:53:53;;;;;;;;;;;-0.70;95.90;;;-1.62;64.85;96317.50;10327029;28;2416;-88
2021/03/20 23:59:18;;;;;;;;;;;-0.10;96.10;;;-1.65;65.06;96313.44;10165608;29;2265;-89
